sensor_id;sensor_type;location;lat;lon;timestamp;P1;P2;P0
76238;PMS7003;65043;48.392;-4.472;2023-04-24T00:00:12;6.25;6.25;4.25
76238;PMS7003;65043;48.392;-4.472;2023-04-24T00:02:40;6.00;6.00;4.25
76238;PMS7003;65043;48.392;-4.472;2023-04-24T00:05:07;8.25;8.00;6.00
76238;PMS7003;65043;48.392;-4.472;2023-04-24T00:07:33;8.00;6.00;4.00
76238;PMS7003;65043;48.392;-4.472;2023-04-24T00:09:59;9.00;6.00;4.00
76238;PMS7003;65043;48.392;-4.472;2023-04-24T00:12:25;6.00;5.25;4.00
76238;PMS7003;65043;48.392;-4.472;2023-04-24T00:14:51;8.50;7.00;5.00
76238;PMS7003;65043;48.392;-4.472;2023-04-24T00:17:16;8.50;6.50;4.50
76238;PMS7003;65043;48.392;-4.472;2023-04-24T00:19:45;5.75;5.75;5.00
76238;PMS7003;65043;48.392;-4.472;2023-04-24T00:22:11;7.50;7.50;5.00
76238;PMS7003;65043;48.392;-4.472;2023-04-24T00:24:38;7.75;6.25;5.00
76238;PMS7003;65043;48.392;-4.472;2023-04-24T00:27:03;5.00;5.00;3.00
76238;PMS7003;65043;48.392;-4.472;2023-04-24T00:29:29;9.50;6.75;5.75
76238;PMS7003;65043;48.392;-4.472;2023-04-24T00:31:54;10.75;8.00;5.00
76238;PMS7003;65043;48.392;-4.472;2023-04-24T00:34:20;8.75;8.00;6.00
76238;PMS7003;65043;48.392;-4.472;2023-04-24T00:36:45;9.00;7.75;5.00
76238;PMS7003;65043;48.392;-4.472;2023-04-24T00:39:11;10.75;9.00;6.00
76238;PMS7003;65043;48.392;-4.472;2023-04-24T00:41:36;8.50;7.25;4.75
76238;PMS7003;65043;48.392;-4.472;2023-04-24T00:44:02;8.75;7.00;6.00
76238;PMS7003;65043;48.392;-4.472;2023-04-24T00:46:27;8.00;8.00;6.00
76238;PMS7003;65043;48.392;-4.472;2023-04-24T00:48:53;7.00;6.00;5.00
76238;PMS7003;65043;48.392;-4.472;2023-04-24T00:51:20;7.00;6.00;5.00
76238;PMS7003;65043;48.392;-4.472;2023-04-24T00:53:46;7.00;7.00;5.75
76238;PMS7003;65043;48.392;-4.472;2023-04-24T00:56:11;10.50;8.75;6.00
76238;PMS7003;65043;48.392;-4.472;2023-04-24T00:58:36;8.50;7.25;5.00
76238;PMS7003;65043;48.392;-4.472;2023-04-24T01:01:02;9.00;9.00;6.75
76238;PMS7003;65043;48.392;-4.472;2023-04-24T01:03:32;8.00;7.00;5.25
76238;PMS7003;65043;48.392;-4.472;2023-04-24T01:05:58;12.25;9.75;6.50
76238;PMS7003;65043;48.392;-4.472;2023-04-24T01:08:24;9.00;8.50;5.00
76238;PMS7003;65043;48.392;-4.472;2023-04-24T01:10:52;10.50;8.50;7.00
76238;PMS7003;65043;48.392;-4.472;2023-04-24T01:13:18;9.25;9.00;6.75
76238;PMS7003;65043;48.392;-4.472;2023-04-24T01:15:44;7.75;7.75;6.00
76238;PMS7003;65043;48.392;-4.472;2023-04-24T01:18:10;9.75;9.50;6.00
76238;PMS7003;65043;48.392;-4.472;2023-04-24T01:20:36;8.75;7.25;5.00
76238;PMS7003;65043;48.392;-4.472;2023-04-24T01:23:05;8.00;6.50;5.00
76238;PMS7003;65043;48.392;-4.472;2023-04-24T01:25:31;4.50;3.00;3.00
76238;PMS7003;65043;48.392;-4.472;2023-04-24T01:27:57;8.50;8.50;6.00
76238;PMS7003;65043;48.392;-4.472;2023-04-24T01:30:23;9.50;8.25;5.75
76238;PMS7003;65043;48.392;-4.472;2023-04-24T01:32:49;8.00;7.00;5.00
76238;PMS7003;65043;48.392;-4.472;2023-04-24T01:35:15;8.25;7.25;5.25
76238;PMS7003;65043;48.392;-4.472;2023-04-24T01:37:40;9.50;9.50;6.00
76238;PMS7003;65043;48.392;-4.472;2023-04-24T01:40:06;9.00;7.00;6.00
76238;PMS7003;65043;48.392;-4.472;2023-04-24T01:42:32;8.00;8.00;7.00
76238;PMS7003;65043;48.392;-4.472;2023-04-24T01:44:58;8.00;7.75;5.00
76238;PMS7003;65043;48.392;-4.472;2023-04-24T01:47:24;8.50;6.75;5.50
76238;PMS7003;65043;48.392;-4.472;2023-04-24T01:49:50;8.75;8.00;5.00
76238;PMS7003;65043;48.392;-4.472;2023-04-24T01:52:16;9.00;8.00;5.00
76238;PMS7003;65043;48.392;-4.472;2023-04-24T01:54:43;6.00;6.00;4.00
76238;PMS7003;65043;48.392;-4.472;2023-04-24T01:57:09;8.50;7.00;5.00
76238;PMS7003;65043;48.392;-4.472;2023-04-24T01:59:35;10.50;7.00;4.00
76238;PMS7003;65043;48.392;-4.472;2023-04-24T02:02:01;7.00;6.00;5.00
76238;PMS7003;65043;48.392;-4.472;2023-04-24T02:04:27;7.75;7.00;4.00
76238;PMS7003;65043;48.392;-4.472;2023-04-24T02:06:53;8.25;8.25;5.00
76238;PMS7003;65043;48.392;-4.472;2023-04-24T02:09:19;7.50;6.00;4.00
76238;PMS7003;65043;48.392;-4.472;2023-04-24T02:11:44;8.50;6.25;3.50
76238;PMS7003;65043;48.392;-4.472;2023-04-24T02:14:09;8.00;6.00;4.75
76238;PMS7003;65043;48.392;-4.472;2023-04-24T02:16:35;9.00;7.50;4.25
76238;PMS7003;65043;48.392;-4.472;2023-04-24T02:19:01;9.75;6.25;4.00
76238;PMS7003;65043;48.392;-4.472;2023-04-24T02:21:26;4.25;4.25;3.00
76238;PMS7003;65043;48.392;-4.472;2023-04-24T02:23:53;8.75;6.75;3.00
76238;PMS7003;65043;48.392;-4.472;2023-04-24T02:26:18;5.75;4.25;4.00
76238;PMS7003;65043;48.392;-4.472;2023-04-24T02:28:44;8.75;8.50;4.50
76238;PMS7003;65043;48.392;-4.472;2023-04-24T02:31:10;9.25;6.50;4.00
76238;PMS7003;65043;48.392;-4.472;2023-04-24T02:33:35;16.25;7.00;5.00
76238;PMS7003;65043;48.392;-4.472;2023-04-24T02:36:01;10.25;6.50;4.00
76238;PMS7003;65043;48.392;-4.472;2023-04-24T02:38:27;12.00;7.00;4.75
76238;PMS7003;65043;48.392;-4.472;2023-04-24T02:40:53;7.25;6.25;3.50
76238;PMS7003;65043;48.392;-4.472;2023-04-24T02:43:19;8.75;6.25;4.50
76238;PMS7003;65043;48.392;-4.472;2023-04-24T02:45:45;6.00;6.00;5.00
76238;PMS7003;65043;48.392;-4.472;2023-04-24T02:48:10;8.00;5.50;4.00
76238;PMS7003;65043;48.392;-4.472;2023-04-24T02:50:36;7.75;7.00;4.50
76238;PMS7003;65043;48.392;-4.472;2023-04-24T02:53:01;8.50;5.75;4.75
76238;PMS7003;65043;48.392;-4.472;2023-04-24T02:55:26;7.75;6.00;4.00
76238;PMS7003;65043;48.392;-4.472;2023-04-24T02:57:52;8.25;6.25;5.00
76238;PMS7003;65043;48.392;-4.472;2023-04-24T03:00:17;12.00;7.50;4.00
76238;PMS7003;65043;48.392;-4.472;2023-04-24T03:02:43;9.50;6.25;5.00
76238;PMS7003;65043;48.392;-4.472;2023-04-24T03:05:08;6.50;6.50;3.25
76238;PMS7003;65043;48.392;-4.472;2023-04-24T03:07:34;9.50;7.00;4.50
76238;PMS7003;65043;48.392;-4.472;2023-04-24T03:09:59;7.00;5.00;3.50
76238;PMS7003;65043;48.392;-4.472;2023-04-24T03:12:25;7.75;5.25;3.00
76238;PMS7003;65043;48.392;-4.472;2023-04-24T03:14:50;7.50;6.00;4.00
76238;PMS7003;65043;48.392;-4.472;2023-04-24T03:17:16;8.00;6.00;5.00
76238;PMS7003;65043;48.392;-4.472;2023-04-24T03:19:41;5.00;5.00;3.50
76238;PMS7003;65043;48.392;-4.472;2023-04-24T03:22:06;6.75;6.75;4.25
76238;PMS7003;65043;48.392;-4.472;2023-04-24T03:24:34;9.00;3.75;2.00
76238;PMS7003;65043;48.392;-4.472;2023-04-24T03:26:59;5.75;4.50;3.00
76238;PMS7003;65043;48.392;-4.472;2023-04-24T03:29:25;6.00;5.75;4.00
76238;PMS7003;65043;48.392;-4.472;2023-04-24T03:31:50;8.50;6.50;4.00
76238;PMS7003;65043;48.392;-4.472;2023-04-24T03:34:16;6.00;6.00;4.00
76238;PMS7003;65043;48.392;-4.472;2023-04-24T03:36:41;6.75;5.00;3.00
76238;PMS7003;65043;48.392;-4.472;2023-04-24T03:39:06;9.25;5.50;4.00
76238;PMS7003;65043;48.392;-4.472;2023-04-24T03:41:32;9.00;6.00;4.00
76238;PMS7003;65043;48.392;-4.472;2023-04-24T03:43:58;4.75;4.75;3.00
76238;PMS7003;65043;48.392;-4.472;2023-04-24T03:46:23;6.25;5.00;3.75
76238;PMS7003;65043;48.392;-4.472;2023-04-24T03:48:49;5.75;5.00;3.00
76238;PMS7003;65043;48.392;-4.472;2023-04-24T03:51:14;6.25;5.75;4.00
76238;PMS7003;65043;48.392;-4.472;2023-04-24T03:53:40;9.00;4.75;3.00
76238;PMS7003;65043;48.392;-4.472;2023-04-24T03:56:05;5.25;4.50;3.00
76238;PMS7003;65043;48.392;-4.472;2023-04-24T03:58:31;6.50;4.50;3.00
76238;PMS7003;65043;48.392;-4.472;2023-04-24T04:00:56;5.25;4.00;3.00
76238;PMS7003;65043;48.392;-4.472;2023-04-24T04:03:25;7.50;6.00;3.00
76238;PMS7003;65043;48.392;-4.472;2023-04-24T04:05:50;6.50;4.25;3.00
76238;PMS7003;65043;48.392;-4.472;2023-04-24T04:08:16;7.00;4.00;2.75
76238;PMS7003;65043;48.392;-4.472;2023-04-24T04:10:41;6.00;5.00;4.00
76238;PMS7003;65043;48.392;-4.472;2023-04-24T04:13:07;4.50;4.50;3.00
76238;PMS7003;65043;48.392;-4.472;2023-04-24T04:15:32;8.00;6.50;3.75
76238;PMS7003;65043;48.392;-4.472;2023-04-24T04:17:57;8.50;5.00;3.25
76238;PMS7003;65043;48.392;-4.472;2023-04-24T04:20:23;7.50;5.75;3.75
76238;PMS7003;65043;48.392;-4.472;2023-04-24T04:22:48;7.00;5.50;4.00
76238;PMS7003;65043;48.392;-4.472;2023-04-24T04:25:14;8.50;6.00;4.00
76238;PMS7003;65043;48.392;-4.472;2023-04-24T04:27:39;6.25;5.75;4.00
76238;PMS7003;65043;48.392;-4.472;2023-04-24T04:30:07;6.00;6.00;4.00
76238;PMS7003;65043;48.392;-4.472;2023-04-24T04:32:33;5.00;3.00;2.00
76238;PMS7003;65043;48.392;-4.472;2023-04-24T04:34:59;5.75;5.75;4.00
76238;PMS7003;65043;48.392;-4.472;2023-04-24T04:37:31;4.50;4.00;4.00
76238;PMS7003;65043;48.392;-4.472;2023-04-24T04:39:58;6.00;5.00;3.00
76238;PMS7003;65043;48.392;-4.472;2023-04-24T04:42:24;6.25;6.00;4.00
76238;PMS7003;65043;48.392;-4.472;2023-04-24T04:44:50;9.00;6.00;4.00
76238;PMS7003;65043;48.392;-4.472;2023-04-24T04:47:16;6.50;5.75;4.00
76238;PMS7003;65043;48.392;-4.472;2023-04-24T04:49:42;5.75;5.00;3.50
76238;PMS7003;65043;48.392;-4.472;2023-04-24T04:52:08;8.00;6.25;4.00
76238;PMS7003;65043;48.392;-4.472;2023-04-24T04:54:33;11.00;7.25;5.00
76238;PMS7003;65043;48.392;-4.472;2023-04-24T04:56:59;6.75;6.50;4.00
76238;PMS7003;65043;48.392;-4.472;2023-04-24T04:59:25;7.00;5.00;4.00
76238;PMS7003;65043;48.392;-4.472;2023-04-24T05:01:51;6.00;6.00;3.50
76238;PMS7003;65043;48.392;-4.472;2023-04-24T05:04:16;9.50;8.50;5.00
76238;PMS7003;65043;48.392;-4.472;2023-04-24T05:06:41;7.75;7.75;5.00
76238;PMS7003;65043;48.392;-4.472;2023-04-24T05:09:07;7.00;5.50;5.00
76238;PMS7003;65043;48.392;-4.472;2023-04-24T05:11:32;6.00;6.00;4.75
76238;PMS7003;65043;48.392;-4.472;2023-04-24T05:13:58;9.00;6.00;4.00
76238;PMS7003;65043;48.392;-4.472;2023-04-24T05:16:23;10.00;7.50;4.00
76238;PMS7003;65043;48.392;-4.472;2023-04-24T05:18:49;6.00;6.00;4.00
76238;PMS7003;65043;48.392;-4.472;2023-04-24T05:21:14;5.25;5.00;4.00
76238;PMS7003;65043;48.392;-4.472;2023-04-24T05:23:39;7.25;6.25;4.00
76238;PMS7003;65043;48.392;-4.472;2023-04-24T05:26:05;7.25;5.00;4.00
76238;PMS7003;65043;48.392;-4.472;2023-04-24T05:28:30;8.00;6.00;3.50
76238;PMS7003;65043;48.392;-4.472;2023-04-24T05:30:56;7.50;7.00;4.00
76238;PMS7003;65043;48.392;-4.472;2023-04-24T05:33:21;4.75;3.50;3.25
76238;PMS7003;65043;48.392;-4.472;2023-04-24T05:35:47;6.25;5.00;4.00
76238;PMS7003;65043;48.392;-4.472;2023-04-24T05:38:13;4.50;4.00;3.00
76238;PMS7003;65043;48.392;-4.472;2023-04-24T05:40:39;6.00;4.50;3.00
76238;PMS7003;65043;48.392;-4.472;2023-04-24T05:43:05;4.50;4.50;3.00
76238;PMS7003;65043;48.392;-4.472;2023-04-24T05:45:30;8.00;6.00;4.50
76238;PMS7003;65043;48.392;-4.472;2023-04-24T05:47:56;5.25;1.25;0.75
76238;PMS7003;65043;48.392;-4.472;2023-04-24T05:50:22;6.00;5.25;4.00
76238;PMS7003;65043;48.392;-4.472;2023-04-24T05:52:47;9.00;7.00;5.00
76238;PMS7003;65043;48.392;-4.472;2023-04-24T05:55:13;7.00;6.75;4.75
76238;PMS7003;65043;48.392;-4.472;2023-04-24T05:57:38;8.00;7.00;5.00
76238;PMS7003;65043;48.392;-4.472;2023-04-24T06:00:04;8.00;6.75;4.00
76238;PMS7003;65043;48.392;-4.472;2023-04-24T06:02:30;10.00;7.25;5.50
76238;PMS7003;65043;48.392;-4.472;2023-04-24T06:04:57;9.00;8.00;4.75
76238;PMS7003;65043;48.392;-4.472;2023-04-24T06:07:24;10.50;5.25;4.00
76238;PMS7003;65043;48.392;-4.472;2023-04-24T06:09:51;7.75;6.00;4.25
76238;PMS7003;65043;48.392;-4.472;2023-04-24T06:12:17;8.75;5.50;4.00
76238;PMS7003;65043;48.392;-4.472;2023-04-24T06:14:42;6.75;6.25;4.50
76238;PMS7003;65043;48.392;-4.472;2023-04-24T06:17:08;12.25;9.00;5.00
76238;PMS7003;65043;48.392;-4.472;2023-04-24T06:19:33;7.25;5.50;4.25
76238;PMS7003;65043;48.392;-4.472;2023-04-24T06:21:59;7.00;7.00;4.00
76238;PMS7003;65043;48.392;-4.472;2023-04-24T06:24:28;8.50;7.50;4.25
76238;PMS7003;65043;48.392;-4.472;2023-04-24T06:26:53;10.75;8.00;5.00
76238;PMS7003;65043;48.392;-4.472;2023-04-24T06:29:19;9.00;6.25;3.75
76238;PMS7003;65043;48.392;-4.472;2023-04-24T06:31:44;6.25;5.25;4.00
76238;PMS7003;65043;48.392;-4.472;2023-04-24T06:34:10;7.50;6.25;5.00
76238;PMS7003;65043;48.392;-4.472;2023-04-24T06:36:35;8.50;8.50;5.00
76238;PMS7003;65043;48.392;-4.472;2023-04-24T06:39:01;7.50;6.00;4.50
76238;PMS7003;65043;48.392;-4.472;2023-04-24T06:41:27;8.00;6.75;5.00
76238;PMS7003;65043;48.392;-4.472;2023-04-24T06:43:53;10.00;6.75;4.00
76238;PMS7003;65043;48.392;-4.472;2023-04-24T06:46:19;7.75;5.00;4.00
76238;PMS7003;65043;48.392;-4.472;2023-04-24T06:48:47;9.00;7.50;4.75
76238;PMS7003;65043;48.392;-4.472;2023-04-24T06:51:12;6.00;5.25;2.50
76238;PMS7003;65043;48.392;-4.472;2023-04-24T06:53:37;9.25;8.75;5.50
76238;PMS7003;65043;48.392;-4.472;2023-04-24T06:56:03;6.00;5.50;3.50
76238;PMS7003;65043;48.392;-4.472;2023-04-24T06:58:29;6.00;5.25;3.00
76238;PMS7003;65043;48.392;-4.472;2023-04-24T07:00:55;7.25;6.00;4.75
76238;PMS7003;65043;48.392;-4.472;2023-04-24T07:03:21;9.25;6.00;4.50
76238;PMS7003;65043;48.392;-4.472;2023-04-24T07:05:48;7.00;5.25;3.75
76238;PMS7003;65043;48.392;-4.472;2023-04-24T07:08:14;6.25;6.25;4.00
76238;PMS7003;65043;48.392;-4.472;2023-04-24T07:10:41;7.25;6.00;4.00
76238;PMS7003;65043;48.392;-4.472;2023-04-24T07:13:07;6.50;5.00;3.75
76238;PMS7003;65043;48.392;-4.472;2023-04-24T07:15:33;6.75;6.00;4.75
76238;PMS7003;65043;48.392;-4.472;2023-04-24T07:17:59;4.00;3.75;1.50
76238;PMS7003;65043;48.392;-4.472;2023-04-24T07:20:24;8.50;5.75;3.00
76238;PMS7003;65043;48.392;-4.472;2023-04-24T07:22:50;7.00;6.00;4.00
76238;PMS7003;65043;48.392;-4.472;2023-04-24T07:25:16;9.50;5.75;3.75
76238;PMS7003;65043;48.392;-4.472;2023-04-24T07:27:42;7.00;5.00;3.75
76238;PMS7003;65043;48.392;-4.472;2023-04-24T07:30:08;6.00;4.50;3.00
76238;PMS7003;65043;48.392;-4.472;2023-04-24T07:32:33;6.50;5.00;3.75
76238;PMS7003;65043;48.392;-4.472;2023-04-24T07:35:00;7.00;6.00;4.00
76238;PMS7003;65043;48.392;-4.472;2023-04-24T07:37:25;7.50;5.00;3.25
76238;PMS7003;65043;48.392;-4.472;2023-04-24T07:39:51;7.00;5.25;3.00
76238;PMS7003;65043;48.392;-4.472;2023-04-24T07:42:16;6.50;6.00;5.00
76238;PMS7003;65043;48.392;-4.472;2023-04-24T07:44:42;7.50;6.25;4.25
76238;PMS7003;65043;48.392;-4.472;2023-04-24T07:47:07;9.25;7.00;4.00
76238;PMS7003;65043;48.392;-4.472;2023-04-24T07:49:33;6.25;4.25;4.00
76238;PMS7003;65043;48.392;-4.472;2023-04-24T07:51:59;6.00;5.25;3.00
76238;PMS7003;65043;48.392;-4.472;2023-04-24T07:54:26;5.25;5.25;3.75
76238;PMS7003;65043;48.392;-4.472;2023-04-24T07:56:52;11.25;5.50;3.50
76238;PMS7003;65043;48.392;-4.472;2023-04-24T07:59:17;7.00;6.00;4.00
76238;PMS7003;65043;48.392;-4.472;2023-04-24T08:01:43;5.25;5.25;3.25
76238;PMS7003;65043;48.392;-4.472;2023-04-24T08:04:08;6.00;4.75;2.50
76238;PMS7003;65043;48.392;-4.472;2023-04-24T08:06:33;6.50;5.50;3.75
76238;PMS7003;65043;48.392;-4.472;2023-04-24T08:08:59;5.50;5.00;3.50
76238;PMS7003;65043;48.392;-4.472;2023-04-24T08:11:25;5.75;5.75;3.25
76238;PMS7003;65043;48.392;-4.472;2023-04-24T08:13:51;5.00;3.75;3.00
76238;PMS7003;65043;48.392;-4.472;2023-04-24T08:16:16;7.00;6.00;3.75
76238;PMS7003;65043;48.392;-4.472;2023-04-24T08:18:42;8.00;6.75;3.50
76238;PMS7003;65043;48.392;-4.472;2023-04-24T08:21:07;5.50;5.00;3.50
76238;PMS7003;65043;48.392;-4.472;2023-04-24T08:23:33;7.50;5.50;4.00
76238;PMS7003;65043;48.392;-4.472;2023-04-24T08:25:58;6.25;5.00;3.00
76238;PMS7003;65043;48.392;-4.472;2023-04-24T08:28:23;5.50;4.25;2.75
76238;PMS7003;65043;48.392;-4.472;2023-04-24T08:30:49;5.25;3.75;2.75
76238;PMS7003;65043;48.392;-4.472;2023-04-24T08:33:19;6.00;6.00;3.25
76238;PMS7003;65043;48.392;-4.472;2023-04-24T08:35:47;5.50;4.75;3.00
76238;PMS7003;65043;48.392;-4.472;2023-04-24T08:38:13;5.00;4.25;3.00
76238;PMS7003;65043;48.392;-4.472;2023-04-24T08:40:38;6.00;4.00;2.50
76238;PMS7003;65043;48.392;-4.472;2023-04-24T08:43:04;7.25;4.50;3.00
76238;PMS7003;65043;48.392;-4.472;2023-04-24T08:45:30;5.25;5.00;3.00
76238;PMS7003;65043;48.392;-4.472;2023-04-24T08:47:57;7.00;5.25;3.00
76238;PMS7003;65043;48.392;-4.472;2023-04-24T08:50:23;5.00;4.00;3.00
76238;PMS7003;65043;48.392;-4.472;2023-04-24T08:52:50;5.50;5.00;3.00
76238;PMS7003;65043;48.392;-4.472;2023-04-24T08:55:18;5.25;5.00;2.50
76238;PMS7003;65043;48.392;-4.472;2023-04-24T08:57:45;5.00;5.00;3.00
76238;PMS7003;65043;48.392;-4.472;2023-04-24T09:00:16;4.00;4.00;2.00
76238;PMS7003;65043;48.392;-4.472;2023-04-24T09:02:42;5.25;4.00;3.00
76238;PMS7003;65043;48.392;-4.472;2023-04-24T09:05:10;3.75;3.75;2.00
76238;PMS7003;65043;48.392;-4.472;2023-04-24T09:07:38;6.00;4.00;2.25
76238;PMS7003;65043;48.392;-4.472;2023-04-24T09:10:06;7.25;5.25;3.00
76238;PMS7003;65043;48.392;-4.472;2023-04-24T09:12:33;9.25;3.00;2.25
76238;PMS7003;65043;48.392;-4.472;2023-04-24T09:14:59;9.25;5.25;4.00
76238;PMS7003;65043;48.392;-4.472;2023-04-24T09:17:28;7.50;6.25;3.50
76238;PMS7003;65043;48.392;-4.472;2023-04-24T09:19:55;4.50;4.00;2.75
76238;PMS7003;65043;48.392;-4.472;2023-04-24T09:22:20;11.50;4.00;3.00
76238;PMS7003;65043;48.392;-4.472;2023-04-24T09:24:46;4.00;4.00;3.00
76238;PMS7003;65043;48.392;-4.472;2023-04-24T09:27:12;4.75;4.00;3.00
76238;PMS7003;65043;48.392;-4.472;2023-04-24T09:29:39;9.00;7.00;3.50
76238;PMS7003;65043;48.392;-4.472;2023-04-24T09:32:19;5.50;4.25;3.25
76238;PMS7003;65043;48.392;-4.472;2023-04-24T09:35:04;6.75;6.25;4.00
76238;PMS7003;65043;48.392;-4.472;2023-04-24T09:37:40;6.75;4.00;3.25
76238;PMS7003;65043;48.392;-4.472;2023-04-24T09:40:10;12.25;5.50;4.00
76238;PMS7003;65043;48.392;-4.472;2023-04-24T09:42:53;10.75;7.50;3.75
76238;PMS7003;65043;48.392;-4.472;2023-04-24T09:45:21;6.00;6.00;3.75
76238;PMS7003;65043;48.392;-4.472;2023-04-24T09:47:51;6.25;5.00;3.75
76238;PMS7003;65043;48.392;-4.472;2023-04-24T09:50:18;5.50;4.75;3.00
76238;PMS7003;65043;48.392;-4.472;2023-04-24T09:52:45;5.00;4.25;3.00
76238;PMS7003;65043;48.392;-4.472;2023-04-24T09:55:16;4.00;2.25;1.50
76238;PMS7003;65043;48.392;-4.472;2023-04-24T09:57:48;4.50;4.00;2.75
76238;PMS7003;65043;48.392;-4.472;2023-04-24T10:00:20;3.75;3.75;2.00
76238;PMS7003;65043;48.392;-4.472;2023-04-24T10:02:50;5.25;3.75;2.00
76238;PMS7003;65043;48.392;-4.472;2023-04-24T10:05:22;4.00;2.75;2.00
76238;PMS7003;65043;48.392;-4.472;2023-04-24T10:07:49;6.25;4.00;2.00
76238;PMS7003;65043;48.392;-4.472;2023-04-24T10:10:15;4.75;3.00;2.00
76238;PMS7003;65043;48.392;-4.472;2023-04-24T10:12:41;4.50;4.50;2.75
76238;PMS7003;65043;48.392;-4.472;2023-04-24T10:15:09;3.25;3.25;2.25
76238;PMS7003;65043;48.392;-4.472;2023-04-24T10:17:37;2.50;2.50;2.50
76238;PMS7003;65043;48.392;-4.472;2023-04-24T10:20:04;6.25;4.00;2.25
76238;PMS7003;65043;48.392;-4.472;2023-04-24T10:22:31;4.50;3.25;3.00
76238;PMS7003;65043;48.392;-4.472;2023-04-24T10:24:58;7.00;4.50;2.00
76238;PMS7003;65043;48.392;-4.472;2023-04-24T10:27:23;7.75;3.50;2.00
76238;PMS7003;65043;48.392;-4.472;2023-04-24T10:29:52;8.00;4.00;2.00
76238;PMS7003;65043;48.392;-4.472;2023-04-24T10:32:18;6.50;4.00;2.25
76238;PMS7003;65043;48.392;-4.472;2023-04-24T10:34:43;9.00;3.50;1.00
76238;PMS7003;65043;48.392;-4.472;2023-04-24T10:37:09;4.25;4.00;3.00
76238;PMS7003;65043;48.392;-4.472;2023-04-24T10:39:35;3.25;3.25;2.25
76238;PMS7003;65043;48.392;-4.472;2023-04-24T10:42:02;5.50;5.00;3.00
76238;PMS7003;65043;48.392;-4.472;2023-04-24T10:44:40;5.75;3.50;2.75
76238;PMS7003;65043;48.392;-4.472;2023-04-24T10:47:06;6.25;4.00;3.00
76238;PMS7003;65043;48.392;-4.472;2023-04-24T10:49:38;5.00;3.75;3.00
76238;PMS7003;65043;48.392;-4.472;2023-04-24T10:52:03;5.25;3.50;2.00
76238;PMS7003;65043;48.392;-4.472;2023-04-24T10:54:36;7.50;5.25;3.50
76238;PMS7003;65043;48.392;-4.472;2023-04-24T10:59:44;9.75;5.50;4.00
76238;PMS7003;65043;48.392;-4.472;2023-04-24T11:02:10;5.25;4.00;3.00
76238;PMS7003;65043;48.392;-4.472;2023-04-24T11:04:35;5.00;5.00;4.00
76238;PMS7003;65043;48.392;-4.472;2023-04-24T11:07:04;7.00;5.00;3.50
76238;PMS7003;65043;48.392;-4.472;2023-04-24T11:09:30;4.75;2.75;1.75
76238;PMS7003;65043;48.392;-4.472;2023-04-24T11:12:09;6.75;5.75;3.00
76238;PMS7003;65043;48.392;-4.472;2023-04-24T11:17:33;5.25;3.75;2.75
76238;PMS7003;65043;48.392;-4.472;2023-04-24T11:20:05;7.00;3.25;2.00
76238;PMS7003;65043;48.392;-4.472;2023-04-24T11:22:35;7.50;3.75;3.00
76238;PMS7003;65043;48.392;-4.472;2023-04-24T11:25:08;6.25;3.25;2.00
76238;PMS7003;65043;48.392;-4.472;2023-04-24T11:27:40;9.00;5.00;3.75
76238;PMS7003;65043;48.392;-4.472;2023-04-24T11:30:07;4.00;3.00;2.00
76238;PMS7003;65043;48.392;-4.472;2023-04-24T11:32:42;2.50;2.50;2.50
76238;PMS7003;65043;48.392;-4.472;2023-04-24T11:37:43;6.75;5.00;3.50
76238;PMS7003;65043;48.392;-4.472;2023-04-24T11:40:14;3.75;3.75;2.00
76238;PMS7003;65043;48.392;-4.472;2023-04-24T11:42:42;4.75;3.00;2.00
76238;PMS7003;65043;48.392;-4.472;2023-04-24T11:47:35;3.75;3.75;3.00
76238;PMS7003;65043;48.392;-4.472;2023-04-24T11:50:02;5.75;2.50;2.00
76238;PMS7003;65043;48.392;-4.472;2023-04-24T11:52:32;3.50;3.50;2.00
76238;PMS7003;65043;48.392;-4.472;2023-04-24T11:55:01;4.50;4.00;2.00
76238;PMS7003;65043;48.392;-4.472;2023-04-24T11:57:28;5.75;3.25;2.00
76238;PMS7003;65043;48.392;-4.472;2023-04-24T11:59:58;5.00;5.00;3.00
76238;PMS7003;65043;48.392;-4.472;2023-04-24T12:02:25;5.00;4.00;3.00
76238;PMS7003;65043;48.392;-4.472;2023-04-24T12:04:54;4.50;4.00;3.00
76238;PMS7003;65043;48.392;-4.472;2023-04-24T12:07:20;4.00;4.00;3.00
76238;PMS7003;65043;48.392;-4.472;2023-04-24T12:09:48;6.25;3.75;2.00
76238;PMS7003;65043;48.392;-4.472;2023-04-24T12:12:20;8.00;5.25;3.00
76238;PMS7003;65043;48.392;-4.472;2023-04-24T12:14:52;5.00;3.50;2.75
76238;PMS7003;65043;48.392;-4.472;2023-04-24T12:19:59;3.00;3.00;2.00
76238;PMS7003;65043;48.392;-4.472;2023-04-24T12:22:26;3.25;3.25;2.00
76238;PMS7003;65043;48.392;-4.472;2023-04-24T12:25:01;4.75;2.00;1.75
76238;PMS7003;65043;48.392;-4.472;2023-04-24T12:27:29;3.00;3.00;1.00
76238;PMS7003;65043;48.392;-4.472;2023-04-24T12:29:56;4.00;3.00;2.00
76238;PMS7003;65043;48.392;-4.472;2023-04-24T12:32:23;3.00;2.50;2.00
76238;PMS7003;65043;48.392;-4.472;2023-04-24T12:34:50;3.50;3.00;2.25
76238;PMS7003;65043;48.392;-4.472;2023-04-24T12:37:16;3.00;3.00;2.00
76238;PMS7003;65043;48.392;-4.472;2023-04-24T12:42:35;6.50;4.50;2.00
76238;PMS7003;65043;48.392;-4.472;2023-04-24T12:45:06;7.00;3.25;2.00
76238;PMS7003;65043;48.392;-4.472;2023-04-24T12:47:33;4.00;4.00;3.00
76238;PMS7003;65043;48.392;-4.472;2023-04-24T12:49:59;3.25;2.75;2.00
76238;PMS7003;65043;48.392;-4.472;2023-04-24T12:52:26;3.50;3.00;2.00
76238;PMS7003;65043;48.392;-4.472;2023-04-24T12:54:52;5.75;4.50;3.00
76238;PMS7003;65043;48.392;-4.472;2023-04-24T12:57:20;3.00;3.00;1.75
76238;PMS7003;65043;48.392;-4.472;2023-04-24T12:59:45;8.00;4.00;2.25
76238;PMS7003;65043;48.392;-4.472;2023-04-24T13:02:11;4.00;4.00;2.00
76238;PMS7003;65043;48.392;-4.472;2023-04-24T13:04:37;4.00;2.75;2.00
76238;PMS7003;65043;48.392;-4.472;2023-04-24T13:07:02;4.00;2.25;1.25
76238;PMS7003;65043;48.392;-4.472;2023-04-24T13:09:28;4.50;3.00;2.50
76238;PMS7003;65043;48.392;-4.472;2023-04-24T13:11:53;4.00;3.00;2.00
76238;PMS7003;65043;48.392;-4.472;2023-04-24T13:14:20;4.50;3.75;2.00
76238;PMS7003;65043;48.392;-4.472;2023-04-24T13:16:45;5.00;4.50;2.00
76238;PMS7003;65043;48.392;-4.472;2023-04-24T13:19:11;3.00;3.00;2.00
76238;PMS7003;65043;48.392;-4.472;2023-04-24T13:21:36;4.00;2.50;2.00
76238;PMS7003;65043;48.392;-4.472;2023-04-24T13:24:01;2.00;2.00;1.50
76238;PMS7003;65043;48.392;-4.472;2023-04-24T13:26:28;4.25;3.25;2.00
76238;PMS7003;65043;48.392;-4.472;2023-04-24T13:28:54;4.00;2.25;2.00
76238;PMS7003;65043;48.392;-4.472;2023-04-24T13:31:19;2.00;2.00;1.75
76238;PMS7003;65043;48.392;-4.472;2023-04-24T13:33:45;3.00;3.00;2.00
76238;PMS7003;65043;48.392;-4.472;2023-04-24T13:36:10;3.75;2.00;2.00
76238;PMS7003;65043;48.392;-4.472;2023-04-24T13:38:35;2.00;1.75;1.00
76238;PMS7003;65043;48.392;-4.472;2023-04-24T13:41:01;2.00;1.50;1.00
76238;PMS7003;65043;48.392;-4.472;2023-04-24T13:43:26;1.50;1.50;1.00
76238;PMS7003;65043;48.392;-4.472;2023-04-24T13:45:52;2.25;1.75;1.00
76238;PMS7003;65043;48.392;-4.472;2023-04-24T13:48:17;1.50;1.25;1.00
76238;PMS7003;65043;48.392;-4.472;2023-04-24T13:50:43;1.25;0.75;0.75
76238;PMS7003;65043;48.392;-4.472;2023-04-24T13:53:09;1.75;1.75;0.75
76238;PMS7003;65043;48.392;-4.472;2023-04-24T13:55:35;2.00;2.00;1.00
76238;PMS7003;65043;48.392;-4.472;2023-04-24T13:58:01;2.00;1.00;0.75
76238;PMS7003;65043;48.392;-4.472;2023-04-24T14:00:27;2.75;1.75;1.00
76238;PMS7003;65043;48.392;-4.472;2023-04-24T14:02:53;1.00;1.00;1.00
76238;PMS7003;65043;48.392;-4.472;2023-04-24T14:05:18;1.00;1.00;1.00
76238;PMS7003;65043;48.392;-4.472;2023-04-24T14:07:44;2.75;2.00;0.25
76238;PMS7003;65043;48.392;-4.472;2023-04-24T14:10:09;2.00;1.00;1.00
76238;PMS7003;65043;48.392;-4.472;2023-04-24T14:12:35;2.75;2.50;2.00
76238;PMS7003;65043;48.392;-4.472;2023-04-24T14:15:01;3.00;3.00;1.75
76238;PMS7003;65043;48.392;-4.472;2023-04-24T14:17:26;2.00;2.00;1.00
76238;PMS7003;65043;48.392;-4.472;2023-04-24T14:19:51;2.75;2.75;2.00